Time;durP1;ratioP1;P1;durP2;ratioP2;P2;SDS_P1;SDS_P2;PMS_P1;PMS_P2;Temp;Humidity;BMP_temperature;BMP_pressure;BME280_temperature;BME280_humidity;BME280_pressure;Samples;Min_cycle;Max_cycle;Signal;HPM_P1;HPM_P2
2023/03/23 00:02:12;;;;;;;10.38;9.68;;;8.90;67.00;;;;;;5066731;28;20036;-76
2023/03/23 00:04:37;;;;;;;8.90;8.40;;;8.90;67.10;;;;;;5054023;28;20466;-75
2023/03/23 00:07:03;;;;;;;9.15;8.55;;;8.80;67.30;;;;;;5055356;28;20079;-77
2023/03/23 00:09:34;;;;;;;9.45;8.85;;;8.70;67.60;;;;;;5054707;28;20028;-78
2023/03/23 00:12:04;;;;;;;;;;;8.70;68.10;;;;;;5049875;28;20775;-75
2023/03/23 00:14:40;;;;;;;11.13;10.43;;;8.60;69.10;;;;;;5043753;28;19958;-76
2023/03/23 00:17:10;;;;;;;9.95;9.35;;;8.50;69.30;;;;;;5044959;28;20033;-79
2023/03/23 00:19:45;;;;;;;9.00;8.40;;;8.50;69.50;;;;;;5081333;28;20056;-79
2023/03/23 00:22:16;;;;;;;9.48;8.82;;;8.40;70.30;;;;;;5051865;28;20033;-76
2023/03/23 00:24:43;;;;;;;10.05;9.40;;;8.40;70.40;;;;;;5057021;28;20040;-76
2023/03/23 00:27:12;;;;;;;9.85;9.27;;;8.40;70.30;;;;;;5053644;28;20060;-76
2023/03/23 00:29:39;;;;;;;10.18;9.50;;;8.40;70.10;;;;;;5051440;28;20059;-78
2023/03/23 00:32:05;;;;;;;10.02;9.32;;;8.40;69.80;;;;;;5049275;28;20037;-78
2023/03/23 00:34:34;;;;;;;10.45;9.75;;;8.50;70.20;;;;;;5048459;28;20038;-75
2023/03/23 00:37:00;;;;;;;10.25;9.55;;;8.60;69.10;;;;;;5058391;28;20036;-76
2023/03/23 00:39:27;;;;;;;9.52;8.93;;;8.50;69.70;;;;;;5043885;28;20048;-77
2023/03/23 00:42:00;;;;;;;10.27;9.68;;;8.60;69.70;;;;;;5050521;28;20033;-75
2023/03/23 00:44:34;;;;;;;11.38;10.05;;;8.50;69.90;;;;;;5051169;28;20083;-76
2023/03/23 00:47:00;;;;;;;10.27;9.68;;;8.50;70.10;;;;;;5064855;28;20033;-74
2023/03/23 00:49:26;;;;;;;10.45;9.55;;;8.50;71.00;;;;;;5048741;28;20028;-75
2023/03/23 00:51:58;;;;;;;11.95;10.90;;;8.40;70.70;;;;;;5040903;28;20033;-76
2023/03/23 00:54:24;;;;;;;11.93;10.73;;;8.40;71.20;;;;;;5044091;28;20026;-77
2023/03/23 00:56:51;;;;;;;10.95;10.35;;;8.40;70.60;;;;;;5048718;28;20448;-76
2023/03/23 00:59:16;;;;;;;10.52;9.93;;;8.30;71.20;;;;;;5049346;28;20048;-75
2023/03/23 01:01:42;;;;;;;10.20;9.48;;;8.30;71.90;;;;;;5042559;28;20061;-76
2023/03/23 01:04:11;;;;;;;10.50;9.85;;;8.40;71.00;;;;;;5045010;28;20041;-78
2023/03/23 01:06:40;;;;;;;11.80;11.10;;;8.40;71.10;;;;;;5049496;28;20025;-75
2023/03/23 01:09:14;;;;;;;11.68;10.88;;;8.30;71.70;;;;;;5045719;28;20104;-79
2023/03/23 01:11:43;;;;;;;10.98;10.32;;;8.30;72.80;;;;;;5047182;28;20627;-76
2023/03/23 01:14:10;;;;;;;11.18;10.57;;;8.20;72.80;;;;;;5048070;28;20033;-77
2023/03/23 01:16:35;;;;;;;11.13;10.43;;;8.20;73.00;;;;;;5047756;28;20036;-78
2023/03/23 01:19:01;;;;;;;11.15;10.35;;;8.20;74.40;;;;;;5043367;28;20033;-76
2023/03/23 01:21:27;;;;;;;11.15;10.45;;;8.20;73.30;;;;;;5051250;28;20120;-77
2023/03/23 01:23:53;;;;;;;11.35;10.57;;;8.30;72.50;;;;;;5045050;28;20037;-79
2023/03/23 01:26:21;;;;;;;10.98;10.18;;;8.30;72.60;;;;;;5054986;28;20037;-75
2023/03/23 01:28:48;;;;;;;10.90;10.20;;;8.30;73.10;;;;;;5029534;28;20380;-75
2023/03/23 01:31:17;;;;;;;10.90;10.02;;;8.30;73.80;;;;;;5052170;28;20107;-79
2023/03/23 01:33:44;;;;;;;11.20;10.30;;;8.30;74.10;;;;;;5043131;28;20443;-77
2023/03/23 01:36:13;;;;;;;11.05;10.40;;;8.20;73.70;;;;;;5047713;28;20044;-75
2023/03/23 01:38:39;;;;;;;10.45;9.75;;;8.30;73.30;;;;;;5047493;28;20131;-80
2023/03/23 01:41:05;;;;;;;10.77;10.10;;;8.30;73.60;;;;;;5042730;28;20128;-76
2023/03/23 01:43:31;;;;;;;10.20;9.50;;;8.30;74.00;;;;;;5049541;28;20746;-80
2023/03/23 01:45:57;;;;;;;10.90;10.10;;;8.20;74.10;;;;;;5062802;28;20083;-77
2023/03/23 01:48:35;;;;;;;11.15;10.45;;;8.30;73.60;;;;;;5045778;28;20033;-79
2023/03/23 01:51:15;;;;;;;11.32;10.52;;;8.30;73.70;;;;;;5057071;28;20035;-76
2023/03/23 01:54:02;;;;;;;10.80;9.97;;;8.40;73.60;;;;;;5049975;28;20024;-75
2023/03/23 01:56:41;;;;;;;11.23;10.50;;;8.40;73.00;;;;;;5042926;28;20349;-75
2023/03/23 01:59:08;;;;;;;11.27;10.45;;;8.40;73.20;;;;;;5049115;28;20064;-75
2023/03/23 02:01:39;;;;;;;11.10;10.40;;;8.40;73.10;;;;;;5045948;28;20112;-75
2023/03/23 02:04:05;;;;;;;11.13;10.32;;;8.40;73.00;;;;;;5051569;28;20033;-75
2023/03/23 02:06:31;;;;;;;10.63;9.80;;;8.30;73.40;;;;;;5048345;28;20038;-75
2023/03/23 02:08:58;;;;;;;10.88;10.18;;;8.30;73.90;;;;;;5048925;28;20035;-80
2023/03/23 02:11:23;;;;;;;11.05;10.25;;;8.40;73.70;;;;;;5055858;28;20133;-77
2023/03/23 02:13:50;;;;;;;11.50;10.70;;;8.40;73.80;;;;;;5046386;28;20180;-76
2023/03/23 02:16:40;;;;;;;11.05;10.30;;;8.40;74.20;;;;;;5043049;28;20036;-80
2023/03/23 02:19:44;;;;;;;10.82;10.13;;;8.40;74.30;;;;;;5048558;28;20056;-76
2023/03/23 02:22:12;;;;;;;10.88;10.18;;;8.40;74.80;;;;;;5047217;28;20131;-78
2023/03/23 02:24:38;;;;;;;11.57;10.80;;;8.50;74.30;;;;;;5049170;28;20029;-78
2023/03/23 02:27:18;;;;;;;11.05;10.25;;;8.50;73.80;;;;;;5042875;28;20453;-77
2023/03/23 02:30:17;;;;;;;10.02;9.43;;;8.60;73.60;;;;;;5045976;28;20096;-76
2023/03/23 02:33:05;;;;;;;11.43;10.43;;;8.60;73.60;;;;;;5039919;28;20344;-79
2023/03/23 02:35:34;;;;;;;10.68;9.98;;;8.70;73.30;;;;;;5050440;28;20078;-77
2023/03/23 02:38:06;;;;;;;11.52;10.73;;;8.70;73.90;;;;;;5044986;28;20045;-76
2023/03/23 02:40:44;;;;;;;11.90;11.07;;;8.70;73.70;;;;;;5042080;28;20029;-77
2023/03/23 02:43:17;;;;;;;10.65;9.95;;;8.70;73.40;;;;;;5043247;28;20124;-75
2023/03/23 02:45:45;;;;;;;11.20;10.43;;;8.80;73.60;;;;;;5049823;28;20135;-77
2023/03/23 02:48:13;;;;;;;10.70;10.05;;;8.70;74.40;;;;;;5055136;28;20405;-77
2023/03/23 02:50:42;;;;;;;10.85;10.23;;;8.80;74.10;;;;;;5053042;28;20427;-77
2023/03/23 02:53:11;;;;;;;11.00;10.20;;;8.70;74.00;;;;;;5048478;28;20051;-76
2023/03/23 02:55:41;;;;;;;11.00;10.30;;;8.70;74.00;;;;;;5043179;28;20052;-75
2023/03/23 02:58:10;;;;;;;12.90;12.18;;;8.60;76.20;;;;;;5045863;28;20033;-76
2023/03/23 03:00:36;;;;;;;12.23;11.32;;;8.70;74.50;;;;;;5046746;28;20047;-77
2023/03/23 03:03:03;;;;;;;11.70;10.90;;;8.70;74.50;;;;;;5039851;28;20033;-75
2023/03/23 03:05:54;;;;;;;12.48;11.68;;;8.70;74.40;;;;;;5045257;28;20029;-75
2023/03/23 03:08:26;;;;;;;11.50;10.73;;;8.80;74.40;;;;;;5049206;28;20059;-78
2023/03/23 03:10:58;;;;;;;10.93;10.23;;;8.90;73.90;;;;;;5046460;28;20025;-76
2023/03/23 03:13:33;;;;;;;10.65;9.73;;;9.00;73.60;;;;;;5040647;28;20109;-77
2023/03/23 03:16:20;;;;;;;11.65;10.90;;;9.00;73.90;;;;;;5045817;28;20032;-74
2023/03/23 03:19:18;;;;;;;11.52;10.55;;;9.10;73.20;;;;;;5050078;28;20025;-77
2023/03/23 03:21:48;;;;;;;10.90;10.30;;;9.10;73.40;;;;;;5039555;28;20045;-75
2023/03/23 03:24:16;;;;;;;11.65;10.95;;;9.10;73.00;;;;;;5041183;28;20403;-75
2023/03/23 03:26:47;;;;;;;11.88;11.07;;;9.10;73.90;;;;;;5025865;28;20152;-75
2023/03/23 03:29:18;;;;;;;11.48;10.77;;;9.10;74.10;;;;;;5045970;28;20036;-77
2023/03/23 03:31:45;;;;;;;12.18;11.38;;;9.10;75.50;;;;;;5041677;28;20032;-76
2023/03/23 03:34:17;;;;;;;11.73;11.02;;;9.00;75.30;;;;;;5050611;28;20025;-77
2023/03/23 03:36:45;;;;;;;14.38;13.45;;;9.00;75.50;;;;;;5051468;28;20046;-80
2023/03/23 03:39:12;;;;;;;10.52;9.82;;;9.00;76.90;;;;;;5046569;28;20032;-76
2023/03/23 03:41:38;;;;;;;10.02;9.38;;;9.00;77.10;;;;;;5039899;28;20498;-76
2023/03/23 03:44:06;;;;;;;11.95;10.98;;;8.90;77.80;;;;;;5046320;28;20404;-77
2023/03/23 03:46:32;;;;;;;12.25;11.48;;;8.90;79.60;;;;;;5061158;28;20124;-74
2023/03/23 03:49:00;;;;;;;11.27;10.57;;;8.80;80.40;;;;;;5059024;28;20037;-79
2023/03/23 03:51:27;;;;;;;11.55;10.80;;;8.70;79.90;;;;;;5049961;28;20038;-78
2023/03/23 03:53:53;;;;;;;15.43;14.43;;;8.90;78.50;;;;;;5056801;28;20033;-75
2023/03/23 03:56:22;;;;;;;12.68;11.88;;;9.00;77.30;;;;;;5051438;28;20112;-78
2023/03/23 03:58:49;;;;;;;14.13;13.43;;;9.00;76.60;;;;;;5052129;28;20174;-78
2023/03/23 04:01:15;;;;;;;14.60;13.85;;;9.30;75.20;;;;;;5048733;28;20044;-77
2023/03/23 04:03:42;;;;;;;13.85;13.05;;;9.40;74.30;;;;;;5051772;28;20102;-78
2023/03/23 04:06:09;;;;;;;15.77;14.75;;;9.40;73.80;;;;;;5050549;28;20380;-82
2023/03/23 04:08:37;;;;;;;14.98;14.07;;;9.60;72.20;;;;;;5046121;28;20032;-75
2023/03/23 04:11:04;;;;;;;12.82;11.82;;;9.70;72.10;;;;;;5052935;28;20422;-77
2023/03/23 04:13:30;;;;;;;13.93;13.13;;;9.70;71.70;;;;;;5052937;28;20027;-76
2023/03/23 04:15:56;;;;;;;12.98;12.27;;;9.60;72.60;;;;;;5043968;28;20360;-76
2023/03/23 04:18:22;;;;;;;12.23;11.55;;;9.80;71.20;;;;;;5046139;28;20088;-79
2023/03/23 04:20:49;;;;;;;16.50;15.50;;;9.80;70.70;;;;;;5047966;28;20475;-80
2023/03/23 04:23:19;;;;;;;18.25;17.38;;;9.80;70.70;;;;;;5055123;28;20032;-79
2023/03/23 04:25:46;;;;;;;13.02;12.18;;;9.80;71.20;;;;;;5051374;28;20037;-75
2023/03/23 04:28:12;;;;;;;11.43;10.73;;;9.80;71.40;;;;;;5057656;28;20029;-75
2023/03/23 04:30:38;;;;;;;10.57;9.98;;;9.80;70.80;;;;;;5052517;28;20030;-74
2023/03/23 04:33:04;;;;;;;11.15;10.55;;;9.90;70.40;;;;;;5050370;28;20120;-74
2023/03/23 04:35:30;;;;;;;12.48;11.68;;;9.80;70.80;;;;;;5050207;28;20051;-75
2023/03/23 04:37:56;;;;;;;12.98;12.18;;;9.80;70.70;;;;;;5057633;28;20567;-75
2023/03/23 04:40:23;;;;;;;11.52;10.82;;;9.80;70.80;;;;;;5062512;28;20040;-74
2023/03/23 04:42:51;;;;;;;11.50;10.90;;;9.90;70.50;;;;;;5053709;28;20029;-75
2023/03/23 04:45:21;;;;;;;11.25;10.65;;;9.90;70.70;;;;;;5059785;28;20462;-76
2023/03/23 04:47:52;;;;;;;12.93;12.23;;;9.90;71.00;;;;;;5050846;28;20037;-75
2023/03/23 04:50:21;;;;;;;11.82;11.13;;;9.90;70.10;;;;;;5058695;28;20029;-76
2023/03/23 04:52:47;;;;;;;12.18;11.57;;;10.00;70.10;;;;;;5042915;28;20052;-75
2023/03/23 04:55:14;;;;;;;12.68;11.95;;;9.90;70.60;;;;;;5053934;28;20025;-75
2023/03/23 04:57:40;;;;;;;12.57;11.88;;;9.90;70.80;;;;;;5042265;28;20041;-75
2023/03/23 05:00:14;;;;;;;11.82;11.07;;;9.80;71.50;;;;;;5052246;28;20051;-77
2023/03/23 05:02:40;;;;;;;10.80;10.20;;;9.80;71.20;;;;;;5042686;28;20063;-77
2023/03/23 05:05:11;;;;;;;11.52;10.82;;;9.80;71.30;;;;;;5048337;28;20514;-76
2023/03/23 05:07:37;;;;;;;11.32;10.73;;;9.90;71.00;;;;;;5053653;28;20037;-76
2023/03/23 05:10:05;;;;;;;11.25;10.63;;;9.80;71.90;;;;;;5050754;28;20037;-76
2023/03/23 05:12:31;;;;;;;12.07;11.48;;;9.80;71.20;;;;;;5041300;28;20080;-79
2023/03/23 05:14:57;;;;;;;11.23;10.55;;;9.80;71.30;;;;;;5049718;28;20037;-78
2023/03/23 05:17:23;;;;;;;12.20;11.50;;;9.90;71.10;;;;;;5038729;28;20029;-76
2023/03/23 05:19:50;;;;;;;13.90;13.02;;;9.80;70.90;;;;;;5048373;28;20072;-77
2023/03/23 05:22:16;;;;;;;10.85;10.25;;;9.90;70.90;;;;;;5051276;28;20032;-78
2023/03/23 05:24:42;;;;;;;10.93;10.32;;;9.90;71.00;;;;;;5059690;28;20039;-75
2023/03/23 05:27:09;;;;;;;11.55;10.95;;;10.00;70.00;;;;;;5045843;28;20024;-75
2023/03/23 05:29:36;;;;;;;11.63;10.93;;;10.10;69.80;;;;;;5052116;28;20120;-80
2023/03/23 05:32:05;;;;;;;11.45;10.75;;;10.30;68.90;;;;;;5048801;28;20029;-74
2023/03/23 05:34:32;;;;;;;11.25;10.50;;;10.30;68.70;;;;;;5046712;28;20062;-75
2023/03/23 05:36:59;;;;;;;11.77;11.18;;;10.30;68.80;;;;;;5050704;28;20050;-76
2023/03/23 05:39:25;;;;;;;11.80;11.20;;;10.40;68.50;;;;;;5067767;28;20037;-75
2023/03/23 05:41:51;;;;;;;10.95;10.15;;;10.40;68.80;;;;;;5052316;28;20048;-80
2023/03/23 05:44:17;;;;;;;12.45;11.65;;;10.30;68.90;;;;;;5057292;28;20043;-84
2023/03/23 05:46:43;;;;;;;12.48;11.88;;;10.30;68.70;;;;;;5033914;28;20048;-75
2023/03/23 05:49:09;;;;;;;11.32;10.82;;;10.40;68.30;;;;;;5043764;28;20033;-78
2023/03/23 05:51:35;;;;;;;11.23;10.55;;;10.40;67.90;;;;;;5049460;28;20048;-76
2023/03/23 05:54:01;;;;;;;10.77;10.07;;;10.40;68.10;;;;;;5047452;28;20025;-81
2023/03/23 05:56:28;;;;;;;11.18;10.40;;;10.40;69.00;;;;;;5044821;28;20065;-79
2023/03/23 05:58:57;;;;;;;10.98;10.38;;;10.40;68.30;;;;;;5053649;28;20112;-76
2023/03/23 06:01:24;;;;;;;15.13;11.82;;;10.40;67.90;;;;;;5045898;28;20747;-77
2023/03/23 06:03:53;;;;;;;12.48;11.68;;;10.40;68.80;;;;;;5048335;28;20037;-80
2023/03/23 06:06:20;;;;;;;11.10;10.50;;;10.40;68.30;;;;;;5041776;28;20038;-79
2023/03/23 06:08:46;;;;;;;11.48;10.88;;;10.40;68.40;;;;;;5044635;28;20024;-81
2023/03/23 06:11:13;;;;;;;12.98;12.27;;;10.30;69.50;;;;;;5043945;28;20029;-76
2023/03/23 06:13:39;;;;;;;12.85;11.95;;;10.40;68.80;;;;;;5066977;28;20030;-77
2023/03/23 06:16:05;;;;;;;25.77;24.17;;;10.40;68.50;;;;;;5045563;28;20025;-75
2023/03/23 06:18:33;;;;;;;10.02;9.38;;;10.50;67.70;;;;;;5044259;28;20806;-81
2023/03/23 06:21:00;;;;;;;9.15;8.65;;;10.60;67.40;;;;;;5059718;28;20033;-75
2023/03/23 06:23:26;;;;;;;13.40;12.60;;;10.60;66.90;;;;;;5053109;28;20499;-75
2023/03/23 06:26:01;;;;;;;16.85;16.02;;;10.60;67.30;;;;;;5045725;28;20038;-80
2023/03/23 06:28:27;;;;;;;10.27;9.68;;;10.60;67.00;;;;;;5041783;28;20029;-76
2023/03/23 06:30:53;;;;;;;8.77;8.27;;;10.60;67.70;;;;;;5043261;28;20029;-74
2023/03/23 06:33:19;;;;;;;10.05;9.38;;;10.70;67.30;;;;;;5038074;28;20045;-75
2023/03/23 06:35:45;;;;;;;9.00;8.20;;;10.70;67.00;;;;;;5049000;28;20026;-74
2023/03/23 06:38:10;;;;;;;11.07;10.38;;;10.80;66.40;;;;;;5053959;28;20445;-75
2023/03/23 06:40:36;;;;;;;11.20;10.60;;;10.80;65.90;;;;;;5049216;28;20037;-76
2023/03/23 06:43:03;;;;;;;9.43;8.82;;;10.80;65.50;;;;;;5045300;28;20115;-75
2023/03/23 06:45:30;;;;;;;14.38;13.68;;;10.90;65.60;;;;;;5054145;28;20029;-75
2023/03/23 06:47:56;;;;;;;9.30;8.60;;;10.90;65.10;;;;;;5057574;28;20037;-74
2023/03/23 06:50:22;;;;;;;10.93;10.25;;;11.00;65.10;;;;;;5054892;28;20107;-74
2023/03/23 06:52:50;;;;;;;10.85;10.30;;;11.10;64.80;;;;;;5056617;28;20044;-79
2023/03/23 06:55:16;;;;;;;9.55;8.95;;;11.10;64.20;;;;;;5051622;28;20549;-75
2023/03/23 06:57:43;;;;;;;10.40;9.80;;;11.10;64.50;;;;;;5052263;28;20036;-74
2023/03/23 07:00:13;;;;;;;9.65;9.05;;;11.20;65.40;;;;;;5055690;28;20119;-75
2023/03/23 07:02:40;;;;;;;9.90;9.27;;;11.40;64.30;;;;;;5059187;28;20033;-74
2023/03/23 07:05:08;;;;;;;8.93;8.43;;;11.50;63.70;;;;;;5051252;28;20048;-76
2023/03/23 07:07:35;;;;;;;9.15;8.65;;;11.60;63.20;;;;;;5057431;28;20466;-75
2023/03/23 07:10:02;;;;;;;8.02;7.53;;;11.70;63.80;;;;;;5051512;28;20029;-73
2023/03/23 07:12:28;;;;;;;7.82;7.30;;;11.60;62.10;;;;;;5048177;28;20025;-74
2023/03/23 07:14:54;;;;;;;10.20;9.60;;;11.70;62.70;;;;;;5054839;28;20024;-73
2023/03/23 07:17:20;;;;;;;10.30;9.60;;;11.70;62.80;;;;;;5047411;28;20028;-74
2023/03/23 07:19:46;;;;;;;8.73;8.23;;;11.70;61.80;;;;;;5052461;28;20037;-76
2023/03/23 07:22:11;;;;;;;9.15;8.43;;;11.70;62.50;;;;;;5055359;28;20068;-74
2023/03/23 07:24:37;;;;;;;8.10;7.55;;;11.80;62.70;;;;;;5054098;28;20376;-73
2023/03/23 07:27:03;;;;;;;8.13;7.63;;;11.80;63.10;;;;;;5053766;28;20380;-74
2023/03/23 07:29:29;;;;;;;8.57;7.90;;;11.80;62.40;;;;;;5052653;28;20033;-76
2023/03/23 07:31:56;;;;;;;10.48;9.90;;;11.90;62.00;;;;;;5061930;28;20060;-77
2023/03/23 07:34:22;;;;;;;8.90;8.20;;;12.00;61.60;;;;;;5057944;28;20380;-74
2023/03/23 07:36:49;;;;;;;8.50;7.90;;;12.10;61.80;;;;;;5058708;28;20045;-75
2023/03/23 07:39:15;;;;;;;9.40;8.80;;;12.20;62.30;;;;;;5054025;28;20033;-75
2023/03/23 07:41:40;;;;;;;8.88;8.32;;;12.30;62.50;;;;;;5056061;28;20751;-74
2023/03/23 07:44:06;;;;;;;9.48;8.95;;;12.30;61.00;;;;;;5055734;28;20036;-76
2023/03/23 07:46:33;;;;;;;8.80;8.20;;;12.30;60.80;;;;;;5035161;28;20431;-74
2023/03/23 07:49:00;;;;;;;8.85;8.15;;;12.40;60.90;;;;;;5058349;28;20040;-77
2023/03/23 07:51:26;;;;;;;8.82;8.32;;;12.60;61.70;;;;;;5048221;28;20021;-74
2023/03/23 07:53:51;;;;;;;8.57;8.02;;;12.80;61.60;;;;;;5053725;28;20024;-74
2023/03/23 07:56:19;;;;;;;7.45;6.85;;;12.80;60.10;;;;;;5052643;28;20756;-77
2023/03/23 07:58:48;;;;;;;8.13;7.63;;;12.90;59.90;;;;;;5058984;28;20529;-76
2023/03/23 08:01:14;;;;;;;10.70;10.10;;;12.90;59.30;;;;;;5049776;28;20069;-77
2023/03/23 08:03:39;;;;;;;8.55;7.95;;;12.90;59.30;;;;;;5058850;28;20399;-75
2023/03/23 08:06:06;;;;;;;8.38;7.88;;;12.90;59.70;;;;;;5052743;28;20025;-77
2023/03/23 08:08:32;;;;;;;8.30;7.75;;;13.00;60.00;;;;;;5057650;28;20029;-75
2023/03/23 08:10:58;;;;;;;8.88;8.38;;;13.20;60.20;;;;;;5055369;28;20103;-74
2023/03/23 08:13:24;;;;;;;8.25;7.75;;;13.20;59.50;;;;;;5059398;28;20493;-77
2023/03/23 08:15:51;;;;;;;8.50;7.90;;;13.40;58.90;;;;;;5051248;28;20020;-78
2023/03/23 08:18:17;;;;;;;8.27;7.68;;;13.70;59.80;;;;;;5052776;28;20091;-75
2023/03/23 08:20:44;;;;;;;8.55;8.05;;;13.90;58.70;;;;;;5054350;28;20082;-76
2023/03/23 08:23:10;;;;;;;8.32;7.80;;;14.00;58.20;;;;;;5061301;28;20036;-77
2023/03/23 08:25:37;;;;;;;8.20;7.70;;;14.20;56.90;;;;;;5055290;28;20037;-76
2023/03/23 08:28:03;;;;;;;8.07;7.57;;;14.20;56.70;;;;;;5052951;28;20525;-76
2023/03/23 08:30:29;;;;;;;7.20;6.80;;;14.10;56.30;;;;;;5062552;28;20530;-77
2023/03/23 08:32:57;;;;;;;8.43;7.95;;;14.30;56.20;;;;;;5059654;28;20076;-74
2023/03/23 08:35:23;;;;;;;10.50;9.80;;;14.40;56.40;;;;;;5056043;28;20079;-75
2023/03/23 08:37:54;;;;;;;8.70;8.20;;;14.40;56.20;;;;;;5059040;28;20884;-76
2023/03/23 08:40:22;;;;;;;8.35;7.85;;;15.10;58.30;;;;;;5058866;28;20040;-76
2023/03/23 08:42:49;;;;;;;8.55;7.68;;;15.10;56.70;;;;;;5060599;28;20116;-75
2023/03/23 08:45:19;;;;;;;8.30;7.70;;;15.50;57.10;;;;;;5059000;28;20059;-77
2023/03/23 08:47:49;;;;;;;7.22;6.80;;;15.60;55.00;;;;;;5053437;28;20041;-76
2023/03/23 08:50:16;;;;;;;;;;;15.20;54.80;;;;;;5053326;28;20103;-74
2023/03/23 08:52:43;;;;;;;6.13;5.78;;;15.10;55.40;;;;;;5064919;28;19912;-75
2023/03/23 08:55:09;;;;;;;5.60;5.25;;;15.10;55.30;;;;;;5055122;28;20120;-77
2023/03/23 08:57:36;;;;;;;6.47;6.10;;;15.10;54.50;;;;;;5058962;28;20147;-80
2023/03/23 09:00:13;;;;;;;16.65;14.98;;;15.00;53.10;;;;;;5054656;28;20040;-75
2023/03/23 09:02:40;;;;;;;5.38;4.97;;;15.00;53.20;;;;;;5062806;28;20024;-74
2023/03/23 09:05:07;;;;;;;6.85;6.25;;;15.10;52.50;;;;;;5058403;28;20029;-75
2023/03/23 09:07:32;;;;;;;6.53;6.18;;;15.20;54.40;;;;;;5059400;28;20033;-76
2023/03/23 09:09:58;;;;;;;6.57;6.20;;;15.30;52.70;;;;;;5057163;28;20497;-75
2023/03/23 09:12:24;;;;;;;6.03;5.72;;;15.40;52.40;;;;;;5058415;28;20028;-75
2023/03/23 09:14:49;;;;;;;9.18;8.38;;;15.30;52.20;;;;;;5055420;28;20078;-74
2023/03/23 09:17:15;;;;;;;7.20;6.65;;;15.20;52.80;;;;;;5055640;28;20043;-80
2023/03/23 09:19:41;;;;;;;6.18;5.78;;;15.20;51.30;;;;;;5054612;28;20052;-76
2023/03/23 09:22:07;;;;;;;6.85;6.35;;;15.20;52.70;;;;;;5046327;28;20033;-74
2023/03/23 09:24:33;;;;;;;7.35;7.05;;;15.20;52.40;;;;;;5055985;28;20116;-75
2023/03/23 09:26:59;;;;;;;41.25;38.60;;;15.20;52.20;;;;;;5061658;28;20144;-77
2023/03/23 09:29:26;;;;;;;7.28;6.88;;;15.20;52.20;;;;;;5052709;28;20467;-77
2023/03/23 09:31:53;;;;;;;7.57;7.18;;;15.40;52.00;;;;;;5059836;28;20541;-73
2023/03/23 09:34:18;;;;;;;8.10;7.55;;;15.40;51.40;;;;;;5055278;28;20037;-75
2023/03/23 09:36:44;;;;;;;7.43;6.88;;;15.40;51.50;;;;;;5054266;28;20049;-74
2023/03/23 09:39:11;;;;;;;10.38;9.88;;;15.50;53.40;;;;;;5051293;28;20041;-74
2023/03/23 09:41:44;;;;;;;8.25;7.80;;;15.40;51.10;;;;;;5060219;28;20044;-74
2023/03/23 09:44:28;;;;;;;12.43;11.50;;;15.50;52.20;;;;;;5054560;28;20552;-73
2023/03/23 09:47:22;;;;;;;6.97;6.57;;;15.60;50.20;;;;;;5056865;28;20041;-74
2023/03/23 09:49:57;;;;;;;7.55;7.15;;;15.60;50.00;;;;;;5051522;28;20016;-74
2023/03/23 09:52:37;;;;;;;9.05;8.57;;;15.80;51.20;;;;;;5055810;28;20029;-74
2023/03/23 09:55:03;;;;;;;7.20;6.80;;;15.80;51.60;;;;;;5039844;28;20067;-74
2023/03/23 09:57:44;;;;;;;8.25;7.75;;;16.00;51.40;;;;;;5055450;28;20131;-74
2023/03/23 10:00:30;;;;;;;8.48;8.07;;;15.90;52.20;;;;;;5061285;28;20630;-74
2023/03/23 10:03:18;;;;;;;6.00;5.65;;;15.90;50.10;;;;;;5053924;28;20098;-74
2023/03/23 10:05:49;;;;;;;7.40;7.00;;;16.30;49.70;;;;;;5056984;28;20047;-74
2023/03/23 10:08:26;;;;;;;7.47;7.03;;;16.40;50.00;;;;;;5051260;28;20040;-74
2023/03/23 10:11:12;;;;;;;7.72;7.32;;;16.70;49.30;;;;;;5061659;28;20094;-75
2023/03/23 10:13:38;;;;;;;9.65;9.15;;;17.20;47.70;;;;;;5049680;28;20056;-75
2023/03/23 10:16:28;;;;;;;17.33;16.60;;;17.00;47.40;;;;;;5062258;28;20098;-75
2023/03/23 10:19:04;;;;;;;7.90;7.50;;;16.50;48.50;;;;;;5048636;28;20039;-75
2023/03/23 10:21:32;;;;;;;9.18;8.68;;;16.50;49.60;;;;;;5061412;28;20111;-74
2023/03/23 10:23:58;;;;;;;11.60;11.05;;;16.00;48.50;;;;;;5049567;28;20167;-76
2023/03/23 10:26:54;;;;;;;7.45;7.05;;;15.80;51.20;;;;;;5057833;28;20054;-75
2023/03/23 10:29:43;;;;;;;6.72;6.32;;;16.00;50.40;;;;;;5054289;28;20021;-76
2023/03/23 10:32:21;;;;;;;7.28;6.75;;;16.20;50.20;;;;;;5059621;28;20068;-76
2023/03/23 10:34:55;;;;;;;9.00;8.60;;;16.40;49.30;;;;;;5058686;28;20483;-75
2023/03/23 10:37:47;;;;;;;8.27;7.88;;;16.30;48.60;;;;;;5052193;28;20061;-76
2023/03/23 10:40:18;;;;;;;8.85;8.35;;;16.40;49.00;;;;;;5066831;28;20035;-75
2023/03/23 10:42:44;;;;;;;6.82;6.43;;;16.30;49.40;;;;;;5056202;28;20032;-75
2023/03/23 10:45:18;;;;;;;8.38;7.88;;;16.30;49.70;;;;;;5059178;28;20533;-77
2023/03/23 10:47:49;;;;;;;7.43;7.03;;;16.30;48.90;;;;;;5056333;28;20040;-74
2023/03/23 10:50:21;;;;;;;7.85;7.38;;;16.40;49.20;;;;;;5057235;28;20021;-76
2023/03/23 10:52:51;;;;;;;7.97;7.57;;;16.70;50.40;;;;;;5055269;28;20039;-74
2023/03/23 10:55:23;;;;;;;12.45;11.80;;;17.50;48.60;;;;;;5059267;28;20028;-76
2023/03/23 10:58:06;;;;;;;8.05;7.65;;;18.10;45.50;;;;;;5051470;28;20530;-75
2023/03/23 11:00:33;;;;;;;7.10;6.68;;;18.00;46.10;;;;;;5053537;28;20037;-76
2023/03/23 11:03:25;;;;;;;8.10;7.70;;;17.90;47.50;;;;;;5047450;28;20047;-76
2023/03/23 11:05:57;;;;;;;7.57;7.15;;;17.40;46.90;;;;;;5049746;28;20024;-74
2023/03/23 11:08:30;;;;;;;7.93;7.53;;;17.30;48.20;;;;;;5050362;28;20383;-78
2023/03/23 11:11:28;;;;;;;8.68;8.18;;;17.60;47.90;;;;;;5059260;28;20028;-74
2023/03/23 11:14:24;;;;;;;8.27;7.78;;;17.70;46.60;;;;;;5054606;28;20040;-74
2023/03/23 11:16:56;;;;;;;7.30;6.90;;;18.30;49.10;;;;;;5052461;28;20044;-73
2023/03/23 11:19:36;;;;;;;7.78;7.30;;;18.00;46.90;;;;;;5048967;28;20115;-71
2023/03/23 11:22:04;;;;;;;7.70;7.25;;;18.00;45.10;;;;;;5053862;28;20053;-72
2023/03/23 11:24:37;;;;;;;7.57;6.97;;;17.60;47.10;;;;;;5049814;28;20814;-73
2023/03/23 11:27:06;;;;;;;7.85;7.25;;;17.40;46.70;;;;;;5057048;28;20362;-75
2023/03/23 11:29:34;;;;;;;7.75;7.35;;;17.60;47.60;;;;;;5051813;28;20017;-75
2023/03/23 11:32:00;;;;;;;9.30;8.80;;;17.80;46.50;;;;;;5049364;28;20063;-74
2023/03/23 11:34:41;;;;;;;9.27;8.77;;;17.70;46.00;;;;;;5053479;28;20061;-74
2023/03/23 11:37:32;;;;;;;8.27;7.88;;;17.50;47.80;;;;;;5054357;28;20045;-75
2023/03/23 11:40:13;;;;;;;7.82;7.30;;;17.70;48.70;;;;;;5059055;28;20029;-75
2023/03/23 11:42:45;;;;;;;9.77;9.18;;;17.60;47.50;;;;;;5056334;28;20119;-74
2023/03/23 11:45:31;;;;;;;7.25;6.85;;;17.40;44.70;;;;;;5060627;28;20024;-75
2023/03/23 11:47:57;;;;;;;13.10;12.50;;;17.20;46.50;;;;;;5053269;28;20059;-75
2023/03/23 11:50:31;;;;;;;8.13;7.72;;;17.30;47.50;;;;;;5060315;28;20496;-74
2023/03/23 11:53:11;;;;;;;11.32;10.82;;;17.50;47.20;;;;;;5053177;28;20025;-74
2023/03/23 11:55:51;;;;;;;6.82;6.32;;;17.70;47.00;;;;;;5064161;28;20502;-75
2023/03/23 11:58:19;;;;;;;7.40;6.88;;;18.00;45.70;;;;;;5056240;28;20032;-74
2023/03/23 12:00:54;;;;;;;11.90;11.27;;;18.30;45.00;;;;;;5062161;28;20052;-74
2023/03/23 12:03:20;;;;;;;6.22;5.82;;;17.80;44.10;;;;;;5055158;28;20028;-75
2023/03/23 12:06:12;;;;;;;26.90;25.73;;;18.60;44.30;;;;;;5060760;28;20095;-74
2023/03/23 12:08:52;;;;;;;8.95;8.48;;;18.10;44.60;;;;;;5058623;28;20033;-73
2023/03/23 12:11:24;;;;;;;;;;;18.40;43.80;;;;;;5057419;28;20025;-74
2023/03/23 12:14:30;;;;;;;8.30;7.90;;;18.50;44.20;;;;;;5065937;28;19959;-74
2023/03/23 12:17:05;;;;;;;6.25;5.93;;;18.30;43.50;;;;;;5048086;28;20045;-73
2023/03/23 12:20:16;;;;;;;8.20;7.80;;;19.00;43.90;;;;;;5061606;28;20029;-74
2023/03/23 12:22:57;;;;;;;7.32;6.70;;;18.60;43.30;;;;;;5043579;28;20045;-74
2023/03/23 12:25:46;;;;;;;15.40;14.65;;;18.10;44.60;;;;;;5059698;28;20082;-74
2023/03/23 12:28:22;;;;;;;8.52;8.13;;;17.50;44.90;;;;;;5064820;28;20170;-74
2023/03/23 12:31:23;;;;;;;6.45;6.03;;;17.30;45.40;;;;;;5056295;28;20024;-75
2023/03/23 12:34:01;;;;;;;11.98;11.38;;;17.40;46.10;;;;;;5061695;28;20016;-74
2023/03/23 12:37:08;;;;;;;8.65;8.15;;;16.80;46.20;;;;;;5058249;28;20024;-75
2023/03/23 12:39:52;;;;;;;8.30;7.88;;;16.70;47.50;;;;;;5053325;28;20040;-75
2023/03/23 12:42:20;;;;;;;14.07;13.38;;;16.80;48.20;;;;;;5052664;28;20025;-75
2023/03/23 12:44:53;;;;;;;9.77;9.27;;;16.90;47.20;;;;;;5058646;28;20490;-74
2023/03/23 12:47:22;;;;;;;7.28;6.78;;;17.30;46.30;;;;;;5053784;28;20052;-73
2023/03/23 12:50:03;;;;;;;21.17;19.98;;;17.40;46.20;;;;;;5056994;28;20021;-75
2023/03/23 12:52:45;;;;;;;8.43;7.93;;;17.80;45.60;;;;;;5048146;28;20071;-74
2023/03/23 12:55:20;;;;;;;7.78;7.38;;;18.20;43.90;;;;;;5063312;28;20021;-74
2023/03/23 12:58:03;;;;;;;15.07;14.38;;;18.20;44.40;;;;;;5060078;28;20028;-74
2023/03/23 13:01:00;;;;;;;6.85;6.50;;;18.10;43.90;;;;;;5059119;28;20111;-73